AirNav   Bose ProFlight Series 2 Headset
 
 1384 users online  

5LA8 Louisiana State Police Troop D Heliport
Lake Charles, Louisiana, USA

GOING TO LAKE CHARLES?


FAA INFORMATION EFFECTIVE 02 JANUARY 2020

Location

FAA Identifier: 5LA8
Lat/Long: 30-13-37.6800N 093-09-45.2400W
30-13.628000N 093-09.754000W
30.2271333,-93.1625667
(estimated)
Elevation: 15 ft. / 5 m (estimated)
Variation: 05E (1985)
From city: 1 mile SE of LAKE CHARLES, LA
Time zone: UTC -6 (UTC -5 during Daylight Saving Time)
Zip code: 70601

Heliport Operations

Heliport use: Private use. Permission required prior to landing
Activation date: 02/1985
Control tower: no
ARTCC: HOUSTON CENTER
FSS: DE RIDDER FLIGHT SERVICE STATION
Attendance: UNATNDD
Segmented circle: no

Heliport Communications

WX AWOS-3 at CWF (1.4 nm SE): 120.0 (337-436-3452)
WX ASOS at LCH (7 nm SW): PHONE 337-477-3371
WX AWOS-3PT at UXL (12 nm SW): 118.175 (337-558-5321)

Nearby radio navigation aids

VOR radial/distance  VOR name  Freq  Var
LCHr323/5.9LAKE CHARLES VORTAC113.4007E

 
NDB name  Hdg/Dist  Freq  Var  ID
MOSSY156/5.141804ECW -.-. .--
SULPHUR079/13.527804EAUR .- ..- .-.
DE RIDDER160/32.738504EDXB -.. -..- -...

Heliport Services

Runway Information

Helipad H1

Dimensions: 12 x 12 ft. / 4 x 4 m
Surface: concrete
Traffic pattern: leftleft

Heliport Ownership and Management from official FAA records

Ownership: Publicly-owned
Owner: LA STATE POLICE
7919 INDEPENDENCE BLVD C-8
BATON ROUGE, LA 70806
Phone 225-922-0380
Manager: STEVEN M. LEE
7919 INDEPENDENCE BLVD C-8
BATON ROUGE, LA 70806
Phone (318) 613-0585

Additional Remarks

A52-H1 100' TWR 100' NORTH.
FOR CD CTC LAKE CHARLES APCH AT 337-480-3103, WHEN APCH CLSD CTC HOUSTON ARTCC AT 281-230-5622.

Instrument Procedures

There are no published instrument procedures at 5LA8.

Some nearby airports with instrument procedures:

KCWF - Chennault International Airport (1 nm SE)
KLCH - Lake Charles Regional Airport (7 nm SW)
KUXL - Southland Field Airport (12 nm SW)
6R1 - Welsh Airport (17 nm E)
5R8 - De Quincy Industrial Airpark (21 nm NW)
 
Loc | Ops | Rwys | IFR | FBO | Links
Com | Nav | Svcs | Stats | Notes
Area around 5LA8 (Louisiana State Police Troop D Heliport)
 
Road maps at: MapQuest Bing Google
 
Aerial photo
No photo
 
Sectional chart

 
Airport distance calculator
Flying to Louisiana State Police Troop D Heliport? Find the distance to fly.

From to 5LA8

Sunrise and sunset
Times for 28-Jan-2020
 Local
(UTC-6)
 Zulu
(UTC)
Morning civil twilight06:4112:41
Sunrise07:0713:07
Sunset17:4523:45
Evening civil twilight18:1000:10

Current date and time
Zulu (UTC)  28-Jan-2020 23:55:47
Local (UTC-6)  28-Jan-2020 17:55:47
 
METAR
KCWF 282255Z 09006KT 10SM OVC090 14/12 A2986
KLCH 
6nm SW 
282253Z AUTO 12012KT 10SM BKN075 OVC090 16/12 A2985 RMK AO2 LTG DSNT N RAB09E18 SLP117 P0000 T01610117
KUXL 
12nm SW 
282335Z AUTO 08007KT 10SM OVC065 15/13 A2987 RMK AO2 T01470125
TAF
KLCH 
6nm SW 
281731Z 2818/2918 07005KT P6SM VCSH SCT030 OVC110 TEMPO 2818/2821 5SM -SHRA OVC025 FM282100 11010KT P6SM VCSH SCT035 OVC110 FM290200 15008KT P6SM VCSH OVC015 FM290600 VRB06KT 5SM -SHRA BR OVC007 FM291000 30008KT P6SM OVC015
NOTAMs
Click for the latest NOTAMs
NOTAMs are issued by the DoD/FAA and will open in a separate window not controlled by AirNav.

 

 
 

Would you like to see your business listed on this page?

 If your business provides an interesting product or service to pilots, flight crews, aircraft, or users of the Louisiana State Police Troop D Heliport, you should consider listing it here.  To start the listing process, click on the button below
 
Add a business
 

Other Pages about Louisiana State Police Troop D Heliport

Update a link
 
Copyright © AirNav, LLC. All rights reserved. Privacy Policy  Contact